createdAt,value
2023-08-22T00:02:38.846Z,98820.69
2023-08-22T00:05:40.300Z,98816.41
2023-08-22T00:08:41.645Z,98829.88
2023-08-22T00:11:43.066Z,98827.91
2023-08-22T00:14:44.471Z,98821.19
2023-08-22T00:17:45.904Z,98823.03
2023-08-22T00:20:47.358Z,98827.97
2023-08-22T00:23:48.723Z,98819.63
2023-08-22T00:26:50.076Z,98811.72
2023-08-22T00:29:51.458Z,98807.09
2023-08-22T00:32:52.922Z,98802.69
2023-08-22T00:35:54.365Z,98797.00
2023-08-22T00:38:55.712Z,98791.59
2023-08-22T00:41:57.066Z,98790.81
2023-08-22T00:44:58.496Z,98798.22
2023-08-22T00:47:59.913Z,98802.84
2023-08-22T00:51:01.326Z,98798.75
2023-08-22T00:54:02.905Z,98797.56
2023-08-22T00:57:04.420Z,98803.22
2023-08-22T01:00:07.520Z,98810.72
2023-08-22T01:03:09.070Z,98813.78
2023-08-22T01:06:33.863Z,98808.31
2023-08-22T01:09:38.023Z,98811.34
2023-08-22T01:12:40.929Z,98797.63
2023-08-22T01:15:42.281Z,98794.88
2023-08-22T01:18:43.626Z,98788.94
2023-08-22T01:21:51.573Z,98786.38
2023-08-22T01:24:53.344Z,98771.38
2023-08-22T01:27:54.636Z,98774.75
2023-08-22T01:31:14.666Z,98765.34
2023-08-22T01:34:23.629Z,98771.53
2023-08-22T01:37:24.977Z,98767.22
2023-08-22T01:40:26.395Z,98765.34
2023-08-22T01:43:27.800Z,98763.22
2023-08-22T01:46:29.206Z,98758.97
2023-08-22T01:49:30.652Z,98759.84
2023-08-22T01:52:32.054Z,98753.75
2023-08-22T01:55:33.412Z,98749.81
2023-08-22T01:58:34.786Z,98762.75
2023-08-22T02:01:36.219Z,98755.75
2023-08-22T02:04:37.696Z,98757.47
2023-08-22T02:07:39.333Z,98752.34
2023-08-22T02:10:40.943Z,98752.03
2023-08-22T02:13:42.359Z,98762.66
2023-08-22T02:16:43.744Z,98759.31
2023-08-22T02:19:45.112Z,98757.56
2023-08-22T02:22:46.838Z,98764.00
2023-08-22T02:25:48.227Z,98753.78
2023-08-22T02:28:49.598Z,98756.41
2023-08-22T02:31:51.050Z,98749.44
2023-08-22T02:34:52.485Z,98752.94
2023-08-22T02:37:53.851Z,98752.81
2023-08-22T02:40:55.219Z,98749.69
2023-08-22T02:43:56.688Z,98754.44
2023-08-22T02:46:58.050Z,98757.22
2023-08-22T02:49:59.535Z,98754.63
2023-08-22T02:53:00.928Z,98766.97
2023-08-22T02:56:02.356Z,98763.94
2023-08-22T02:59:04.445Z,98767.22
2023-08-22T03:02:05.877Z,98769.19
2023-08-22T03:05:09.944Z,98766.22
2023-08-22T03:08:11.348Z,98756.78
2023-08-22T03:11:12.791Z,98759.56
2023-08-22T03:14:14.131Z,98758.94
2023-08-22T03:17:15.483Z,98754.19
2023-08-22T03:20:16.865Z,98756.22
2023-08-22T03:23:18.238Z,98750.38
2023-08-22T03:26:19.697Z,98741.75
2023-08-22T03:29:21.116Z,98746.69
2023-08-22T03:32:22.743Z,98747.44
2023-08-22T03:35:24.170Z,98750.47
2023-08-22T03:38:25.613Z,98747.03
2023-08-22T03:41:27.038Z,98743.03
2023-08-22T03:44:28.393Z,98750.53
2023-08-22T03:47:29.797Z,98745.84
2023-08-22T03:50:31.402Z,98739.50
2023-08-22T03:53:34.237Z,98747.81
2023-08-22T03:56:35.611Z,98751.84
2023-08-22T03:59:36.971Z,98741.00
2023-08-22T04:02:38.441Z,98744.38
2023-08-22T04:05:41.542Z,98745.88
2023-08-22T04:08:45.108Z,98737.13
2023-08-22T04:11:46.552Z,98741.25
2023-08-22T04:14:47.917Z,98744.97
2023-08-22T04:17:51.313Z,98749.63
2023-08-22T04:20:53.120Z,98753.09
2023-08-22T04:23:54.488Z,98760.75
2023-08-22T04:26:55.867Z,98761.34
2023-08-22T04:29:57.425Z,98760.97
2023-08-22T04:32:58.869Z,98758.50
2023-08-22T04:36:00.280Z,98761.84
2023-08-22T04:39:01.662Z,98767.47
2023-08-22T04:42:03.064Z,98758.56
2023-08-22T04:45:04.552Z,98761.03
2023-08-22T04:48:06.070Z,98759.91
2023-08-22T04:51:07.501Z,98771.84
2023-08-22T04:54:09.015Z,98765.97
2023-08-22T04:57:10.378Z,98770.88
2023-08-22T05:00:12.264Z,98771.31
2023-08-22T05:03:16.039Z,98775.69
2023-08-22T05:06:17.488Z,98772.31
2023-08-22T05:09:18.891Z,98767.84
2023-08-22T05:12:20.286Z,98770.31
2023-08-22T05:15:22.081Z,98770.47
2023-08-22T05:18:23.529Z,98766.53
2023-08-22T05:21:25.327Z,98768.25
2023-08-22T05:24:26.782Z,98772.53
2023-08-22T05:27:28.155Z,98774.69
2023-08-22T05:30:29.515Z,98776.13
2023-08-22T05:33:31.103Z,98778.00
2023-08-22T05:36:32.517Z,98772.31
2023-08-22T05:39:33.896Z,98782.47
2023-08-22T05:42:35.324Z,98781.44
2023-08-22T05:45:36.757Z,98781.25
2023-08-22T05:48:38.133Z,98785.34
2023-08-22T05:51:39.634Z,98784.66
2023-08-22T05:54:41.592Z,98796.81
2023-08-22T05:57:43.200Z,98807.22
2023-08-22T06:00:44.835Z,98812.09
2023-08-22T06:03:46.205Z,98823.91
2023-08-22T06:06:47.546Z,98822.69
2023-08-22T06:09:49.016Z,98843.41
2023-08-22T06:12:50.395Z,98845.75
2023-08-22T06:15:51.839Z,98842.16
2023-08-22T06:18:53.227Z,98837.41
2023-08-22T06:21:55.072Z,98838.56
2023-08-22T06:24:56.449Z,98839.88
2023-08-22T06:27:57.837Z,98843.94
2023-08-22T06:31:03.131Z,98840.53
2023-08-22T06:34:04.529Z,98852.38
2023-08-22T06:37:07.442Z,98856.19
2023-08-22T06:40:09.224Z,98851.19
2023-08-22T06:43:10.630Z,98853.28
2023-08-22T06:46:12.110Z,98851.47
2023-08-22T06:49:13.558Z,98850.06
2023-08-22T06:52:15.268Z,98855.00
2023-08-22T06:55:16.766Z,98866.50
2023-08-22T06:58:18.218Z,98860.22
2023-08-22T07:01:19.666Z,98870.41
2023-08-22T07:04:21.201Z,98863.69
2023-08-22T07:07:22.651Z,98878.97
2023-08-22T07:10:24.030Z,98887.63
2023-08-22T07:13:25.387Z,98890.34
2023-08-22T07:16:26.789Z,98909.34
2023-08-22T07:19:40.322Z,98907.34
2023-08-22T07:22:42.788Z,98914.50
2023-08-22T07:25:47.615Z,98911.75
2023-08-22T07:28:48.993Z,98913.69
2023-08-22T07:31:52.345Z,98921.47
2023-08-22T07:34:53.812Z,98921.44
2023-08-22T07:37:55.177Z,98924.13
2023-08-22T07:40:56.546Z,98928.50
2023-08-22T07:43:57.920Z,98931.69
2023-08-22T07:46:59.291Z,98936.03
2023-08-22T07:50:00.876Z,98933.06
2023-08-22T07:53:02.340Z,98940.19
2023-08-22T07:56:06.180Z,98947.50
2023-08-22T07:59:07.724Z,98944.13
2023-08-22T08:02:09.127Z,98946.34
2023-08-22T08:05:11.837Z,98958.66
2023-08-22T08:08:13.277Z,98957.25
2023-08-22T08:11:14.652Z,98960.19
2023-08-22T08:14:16.102Z,98956.22
2023-08-22T08:17:19.176Z,98958.41
2023-08-22T08:20:20.569Z,98966.28
2023-08-22T08:23:22.016Z,98964.84
2023-08-22T08:26:23.454Z,98973.34
2023-08-22T08:29:24.832Z,98972.06
2023-08-22T08:32:26.803Z,98969.19
2023-08-22T08:35:28.211Z,98973.59
2023-08-22T08:38:29.590Z,98961.78
2023-08-22T08:41:32.037Z,98977.59
2023-08-22T08:44:33.942Z,98976.00
2023-08-22T08:47:35.438Z,98971.44
2023-08-22T08:50:37.713Z,98981.16
2023-08-22T08:53:39.063Z,98979.75
2023-08-22T08:56:42.061Z,98977.63
2023-08-22T08:59:43.454Z,98977.81
2023-08-22T09:02:45.508Z,98971.28
2023-08-22T09:05:46.976Z,98971.69
2023-08-22T09:09:08.352Z,98970.81
2023-08-22T09:12:11.082Z,98975.56
2023-08-22T09:15:12.865Z,98969.94
2023-08-22T09:18:14.897Z,98969.34
2023-08-22T09:21:17.432Z,98963.38
2023-08-22T09:24:18.908Z,98970.56
2023-08-22T09:27:25.847Z,98978.59
2023-08-22T09:30:27.244Z,98973.72
2023-08-22T09:33:28.619Z,98969.97
2023-08-22T09:36:29.950Z,98962.94
2023-08-22T09:39:32.397Z,98968.19
2023-08-22T09:42:33.995Z,98963.16
2023-08-22T09:45:40.722Z,98970.47
2023-08-22T09:48:42.301Z,98968.41
2023-08-22T09:51:47.204Z,98969.63
2023-08-22T09:54:48.553Z,98972.66
2023-08-22T09:57:49.948Z,98970.94
2023-08-22T10:00:51.589Z,98972.72
2023-08-22T10:03:54.534Z,98963.56
2023-08-22T10:06:56.108Z,98959.28
2023-08-22T10:09:57.487Z,98971.03
2023-08-22T10:12:58.834Z,98975.56
2023-08-22T10:16:00.315Z,98974.19
2023-08-22T10:19:03.068Z,98957.69
2023-08-22T10:22:08.725Z,98967.72
2023-08-22T10:25:10.118Z,98968.41
2023-08-22T10:28:11.506Z,98970.59
2023-08-22T10:31:13.024Z,98958.00
2023-08-22T10:34:14.489Z,98966.66
2023-08-22T10:37:16.359Z,98958.91
2023-08-22T10:40:28.523Z,98957.47
2023-08-22T10:43:37.517Z,98961.66
2023-08-22T10:46:57.730Z,98954.56
2023-08-22T10:50:15.201Z,98945.97
2023-08-22T10:53:19.347Z,98949.03
2023-08-22T10:56:21.714Z,98959.81
2023-08-22T10:59:23.101Z,98946.59
2023-08-22T11:02:24.479Z,98942.66
2023-08-22T11:05:26.367Z,98942.28
2023-08-22T11:08:29.392Z,98939.44
2023-08-22T11:11:31.056Z,98942.25
2023-08-22T11:14:44.235Z,98932.75
2023-08-22T11:17:49.060Z,98941.69
2023-08-22T11:20:54.901Z,98940.13
2023-08-22T11:23:56.331Z,98952.66
2023-08-22T11:26:57.951Z,98941.00
2023-08-22T11:29:59.328Z,98953.47
2023-08-22T11:33:00.777Z,98941.69
2023-08-22T11:36:02.166Z,98936.69
2023-08-22T11:39:04.383Z,98936.69
2023-08-22T11:42:05.854Z,98943.28
2023-08-22T11:45:07.736Z,98930.88
2023-08-22T11:48:10.535Z,98927.50
2023-08-22T11:51:19.272Z,98934.41
2023-08-22T11:54:24.246Z,98937.91
2023-08-22T11:57:26.487Z,98938.09
2023-08-22T12:00:28.365Z,98932.34
2023-08-22T12:03:39.724Z,98921.94
2023-08-22T12:06:41.148Z,98920.09
2023-08-22T12:09:42.620Z,98921.22
2023-08-22T12:12:44.009Z,98921.88
2023-08-22T12:15:45.534Z,98919.97
2023-08-22T12:18:46.961Z,98920.03
2023-08-22T12:21:48.325Z,98916.66
2023-08-22T12:24:49.737Z,98914.41
2023-08-22T12:27:51.864Z,98923.78
2023-08-22T12:30:53.305Z,98920.09
2023-08-22T12:33:54.701Z,98920.25
2023-08-22T12:36:56.104Z,98917.69
2023-08-22T12:39:57.492Z,98913.34
2023-08-22T12:42:59.077Z,98911.06
2023-08-22T12:46:00.592Z,98909.97
2023-08-22T12:49:01.976Z,98898.72
2023-08-22T12:52:03.464Z,98905.25
2023-08-22T12:55:07.948Z,98908.91
2023-08-22T12:58:09.333Z,98910.47
2023-08-22T13:01:10.801Z,98901.97
2023-08-22T13:04:13.775Z,98901.00
2023-08-22T13:07:15.437Z,98897.03
2023-08-22T13:10:19.309Z,98893.19
2023-08-22T13:13:21.003Z,98885.06
2023-08-22T13:16:22.626Z,98891.84
2023-08-22T13:19:23.992Z,98892.00
2023-08-22T13:22:25.391Z,98890.03
2023-08-22T13:25:26.755Z,98890.88
2023-08-22T13:28:28.188Z,98885.28
2023-08-22T13:31:29.626Z,98881.47
2023-08-22T13:34:31.024Z,98881.19
2023-08-22T13:37:34.052Z,98880.63
2023-08-22T13:40:35.659Z,98872.34
2023-08-22T13:43:39.671Z,98869.34
2023-08-22T13:46:41.684Z,98875.63
2023-08-22T13:49:43.244Z,98882.81
2023-08-22T13:52:44.698Z,98873.22
2023-08-22T13:55:46.073Z,98862.19
2023-08-22T13:58:47.502Z,98882.06
2023-08-22T14:01:49.713Z,98860.03
2023-08-22T14:04:51.092Z,98854.69
2023-08-22T14:07:52.521Z,98852.28
2023-08-22T14:11:01.256Z,98860.28
2023-08-22T14:14:03.040Z,98860.38
2023-08-22T14:17:04.394Z,98859.22
2023-08-22T14:20:06.513Z,98851.53
2023-08-22T14:23:07.863Z,98858.56
2023-08-22T14:26:09.235Z,98860.53
2023-08-22T14:29:10.607Z,98862.53
2023-08-22T14:32:12.030Z,98853.22
2023-08-22T14:35:14.067Z,98844.44
2023-08-22T14:38:15.454Z,98841.25
2023-08-22T14:41:16.835Z,98840.66
2023-08-22T14:44:18.196Z,98832.69
2023-08-22T14:47:19.612Z,98833.53
2023-08-22T14:50:20.977Z,98832.22
2023-08-22T14:53:22.373Z,98842.66
2023-08-22T14:56:23.993Z,98833.91
2023-08-22T14:59:25.350Z,98830.00
2023-08-22T15:02:26.798Z,98841.50
2023-08-22T15:05:28.204Z,98829.72
2023-08-22T15:08:32.602Z,98836.66
2023-08-22T15:11:34.055Z,98828.00
2023-08-22T15:14:35.427Z,98833.53
2023-08-22T15:17:36.797Z,98834.25
2023-08-22T15:20:38.208Z,98827.00
2023-08-22T15:23:42.539Z,98821.22
2023-08-22T15:26:45.828Z,98819.03
2023-08-22T15:29:47.196Z,98825.97
2023-08-22T15:32:48.554Z,98825.03
2023-08-22T15:35:49.956Z,98823.13
2023-08-22T15:38:52.262Z,98817.72
2023-08-22T15:41:53.631Z,98818.78
2023-08-22T15:44:55.322Z,98824.63
2023-08-22T15:47:56.662Z,98816.88
2023-08-22T15:51:01.015Z,98820.47
2023-08-22T15:54:02.419Z,98821.41
2023-08-22T15:57:03.777Z,98824.75
2023-08-22T16:00:05.583Z,98821.66
2023-08-22T16:03:07.881Z,98820.97
2023-08-22T16:06:09.880Z,98823.47
2023-08-22T16:09:11.392Z,98819.25
2023-08-22T16:12:12.788Z,98812.97
2023-08-22T16:15:14.200Z,98815.47
2023-08-22T16:18:15.768Z,98809.38
2023-08-22T16:21:17.170Z,98805.41
2023-08-22T16:24:18.587Z,98800.22
2023-08-22T16:27:31.082Z,98805.53
2023-08-22T16:30:37.696Z,98798.06
2023-08-22T16:33:39.208Z,98807.97
2023-08-22T16:36:40.617Z,98805.59
2023-08-22T16:39:41.974Z,98800.75
2023-08-22T16:42:43.407Z,98795.16
2023-08-22T16:45:44.746Z,98796.91
2023-08-22T16:48:46.149Z,98802.66
2023-08-22T16:51:47.534Z,98792.84
2023-08-22T16:54:49.326Z,98797.00
2023-08-22T16:57:50.718Z,98801.00
2023-08-22T17:00:52.186Z,98795.47
2023-08-22T17:03:54.277Z,98793.72
2023-08-22T17:06:55.908Z,98805.50
2023-08-22T17:09:57.343Z,98798.19
2023-08-22T17:12:58.814Z,98797.00
2023-08-22T17:16:00.286Z,98803.31
2023-08-22T17:19:02.217Z,98811.47
2023-08-22T17:22:03.700Z,98809.78
2023-08-22T17:25:05.880Z,98810.25
2023-08-22T17:28:07.358Z,98807.38
2023-08-22T17:31:09.438Z,98813.13
2023-08-22T17:34:10.968Z,98811.28
2023-08-22T17:37:12.405Z,98810.34
2023-08-22T17:40:13.860Z,98813.59
2023-08-22T17:43:15.291Z,98805.53
2023-08-22T17:46:20.119Z,98809.50
2023-08-22T17:49:21.722Z,98811.19
2023-08-22T17:52:23.173Z,98805.69
2023-08-22T17:55:24.576Z,98810.91
2023-08-22T17:58:26.089Z,98814.66
2023-08-22T18:01:27.567Z,98811.81
2023-08-22T18:04:29.020Z,98807.66
2023-08-22T18:07:30.442Z,98812.91
2023-08-22T18:10:31.899Z,98805.66
2023-08-22T18:13:33.371Z,98813.44
2023-08-22T18:16:34.992Z,98809.59
2023-08-22T18:19:36.488Z,98814.66
2023-08-22T18:22:40.943Z,98809.31
2023-08-22T18:25:42.391Z,98825.84
2023-08-22T18:28:43.817Z,98815.75
2023-08-22T18:31:45.346Z,98821.84
2023-08-22T18:34:46.872Z,98820.72
2023-08-22T18:37:48.529Z,98824.56
2023-08-22T18:40:53.641Z,98824.00
2023-08-22T18:43:55.145Z,98828.72
2023-08-22T18:46:56.609Z,98827.25
2023-08-22T18:50:02.194Z,98824.69
2023-08-22T18:53:04.460Z,98830.94
2023-08-22T18:56:09.050Z,98819.72
2023-08-22T18:59:11.410Z,98826.28
2023-08-22T19:02:12.884Z,98835.56
2023-08-22T19:05:14.354Z,98835.53
2023-08-22T19:08:15.790Z,98834.28
2023-08-22T19:11:17.212Z,98838.59
2023-08-22T19:14:18.710Z,98836.81
2023-08-22T19:17:20.163Z,98846.09
2023-08-22T19:20:22.066Z,98855.81
2023-08-22T19:23:23.560Z,98850.72
2023-08-22T19:26:25.034Z,98852.72
2023-08-22T19:29:26.910Z,98849.78
2023-08-22T19:32:45.904Z,98854.22
2023-08-22T19:35:49.710Z,98854.78
2023-08-22T19:38:51.126Z,98852.81
2023-08-22T19:41:52.573Z,98854.44
2023-08-22T19:44:57.079Z,98854.84
2023-08-22T19:47:58.641Z,98855.91
2023-08-22T19:51:00.305Z,98860.53
2023-08-22T19:54:05.559Z,98861.38
2023-08-22T19:57:07.080Z,98871.31
2023-08-22T20:00:11.277Z,98859.50
2023-08-22T20:03:15.180Z,98857.31
2023-08-22T20:06:16.617Z,98855.72
2023-08-22T20:09:18.224Z,98865.78
2023-08-22T20:12:19.789Z,98860.00
2023-08-22T20:15:21.258Z,98864.72
2023-08-22T20:18:22.782Z,98864.34
2023-08-22T20:21:24.236Z,98863.16
2023-08-22T20:24:25.718Z,98855.72
2023-08-22T20:27:27.161Z,98859.59
2023-08-22T20:30:29.667Z,98860.81
2023-08-22T20:33:31.223Z,98857.44
2023-08-22T20:36:32.735Z,98862.63
2023-08-22T20:39:34.229Z,98861.63
2023-08-22T20:42:36.611Z,98864.47
2023-08-22T20:45:38.032Z,98857.47
2023-08-22T20:48:39.409Z,98860.09
2023-08-22T20:51:40.756Z,98858.59
2023-08-22T20:54:42.106Z,98854.69
2023-08-22T20:57:43.724Z,98856.78
2023-08-22T21:00:45.528Z,98857.81
2023-08-22T21:03:46.985Z,98856.72
2023-08-22T21:06:48.438Z,98850.94
2023-08-22T21:09:49.795Z,98845.94
2023-08-22T21:12:51.138Z,98843.28
2023-08-22T21:15:52.869Z,98842.72
2023-08-22T21:18:54.322Z,98836.94
2023-08-22T21:21:55.864Z,98831.81
2023-08-22T21:24:57.341Z,98825.78
2023-08-22T21:27:58.729Z,98824.50
2023-08-22T21:31:00.098Z,98821.47
2023-08-22T21:34:02.954Z,98824.59
2023-08-22T21:37:04.331Z,98823.97
2023-08-22T21:40:06.041Z,98818.94
2023-08-22T21:43:07.396Z,98823.66
2023-08-22T21:46:08.824Z,98835.59
2023-08-22T21:49:10.628Z,98833.34
2023-08-22T21:52:12.953Z,98834.13
2023-08-22T21:55:14.436Z,98839.91
2023-08-22T21:58:15.809Z,98839.16
2023-08-22T22:01:17.268Z,98843.41
2023-08-22T22:04:19.197Z,98841.34
2023-08-22T22:07:20.592Z,98851.22
2023-08-22T22:10:21.942Z,98852.44
2023-08-22T22:13:23.332Z,98847.56
2023-08-22T22:16:31.003Z,98849.94
2023-08-22T22:19:36.555Z,98851.34
2023-08-22T22:22:37.951Z,98853.22
2023-08-22T22:25:39.308Z,98831.56
2023-08-22T22:28:40.802Z,98816.28
2023-08-22T22:31:42.240Z,98810.41
2023-08-22T22:34:43.657Z,98799.03
2023-08-22T22:37:45.569Z,98798.44
2023-08-22T22:40:47.345Z,98794.91
2023-08-22T22:43:48.737Z,98780.91
2023-08-22T22:46:50.156Z,98775.06
2023-08-22T22:49:53.378Z,98769.00
2023-08-22T22:52:54.964Z,98768.03
2023-08-22T22:55:56.632Z,98766.97
2023-08-22T22:58:58.001Z,98767.69
2023-08-22T23:01:59.380Z,98764.19
2023-08-22T23:05:00.846Z,98771.53
2023-08-22T23:08:02.545Z,98771.22
2023-08-22T23:11:05.049Z,98767.44
2023-08-22T23:14:07.398Z,98772.56
2023-08-22T23:17:09.749Z,98773.75
2023-08-22T23:20:12.607Z,98761.13
2023-08-22T23:23:14.079Z,98762.13
2023-08-22T23:26:15.439Z,98757.91
2023-08-22T23:29:16.796Z,98755.81
2023-08-22T23:32:18.325Z,98749.03
2023-08-22T23:35:19.736Z,98749.09
2023-08-22T23:38:21.115Z,98745.25
2023-08-22T23:41:22.484Z,98740.78
2023-08-22T23:44:23.938Z,98746.50
2023-08-22T23:47:25.452Z,98743.22
2023-08-22T23:50:26.902Z,98734.31
2023-08-22T23:53:28.288Z,98734.09
2023-08-22T23:56:29.655Z,98737.25
2023-08-22T23:59:31.290Z,98743.72
